Terminal Aerodrome Forecast
Issued by NWS Brownsville, TX

Home | Current Version | Previous Version | Text Only | Print | Product List | Glossary On
Versions: 1 2 3 4 5 6 7 8 9 10 11 12 13 14 15 16 17 18 19 20 21 22 23 24 25
000
FTUS44 KBRO 231120
TAFBRO
TAF
KBRO 231120Z 2312/2412 13008KT P6SM FEW035 SCT050
     FM231500 16015G21KT P6SM SCT020 BKN040
     FM232100 13012KT P6SM VCSH SCT030 BKN040
     FM240600 14010KT P6SM VCTS SCT015 BKN025CB PROB30 2406/2412
      VRB15G30KT 4SM TSRA BR BKN015CB=

USA.gov is the U.S. government's official web portal to all federal, state and local government web resources and services.